createdAt,value
2022-09-23T00:03:06.074Z,2.13
2022-09-23T00:06:17.034Z,2.10
2022-09-23T00:09:25.413Z,1.90
2022-09-23T00:12:33.621Z,2.10
2022-09-23T00:15:41.751Z,1.80
2022-09-23T00:18:51.549Z,2.37
2022-09-23T00:21:59.719Z,2.43
2022-09-23T00:25:11.393Z,1.63
2022-09-23T00:28:19.600Z,2.30
2022-09-23T00:31:28.789Z,1.80
2022-09-23T00:34:38.510Z,2.40
2022-09-23T00:37:46.666Z,2.00
2022-09-23T00:40:55.142Z,1.90
2022-09-23T00:44:42.770Z,1.70
2022-09-23T00:47:58.270Z,1.70
2022-09-23T00:51:12.303Z,2.30
2022-09-23T00:54:22.253Z,1.97
2022-09-23T00:57:31.241Z,2.37
2022-09-23T01:00:40.349Z,2.37
2022-09-23T01:03:50.162Z,2.00
2022-09-23T01:06:59.744Z,2.00
2022-09-23T01:10:11.862Z,2.40
2022-09-23T01:13:32.084Z,2.10
2022-09-23T01:16:49.127Z,2.43
2022-09-23T01:20:29.429Z,1.77
2022-09-23T01:24:27.508Z,2.37
2022-09-23T01:28:00.652Z,1.50
2022-09-23T01:31:20.414Z,1.97
2022-09-23T01:34:37.685Z,1.60
2022-09-23T01:37:52.497Z,1.60
2022-09-23T01:41:12.512Z,1.93
2022-09-23T01:44:30.010Z,2.20
2022-09-23T01:47:48.378Z,1.60
2022-09-23T01:51:03.434Z,1.50
2022-09-23T01:54:18.687Z,1.60
2022-09-23T01:57:36.288Z,2.10
2022-09-23T02:00:55.159Z,1.60
2022-09-23T02:04:13.113Z,2.70
2022-09-23T02:07:29.290Z,2.53
2022-09-23T02:10:46.003Z,2.30
2022-09-23T02:13:59.895Z,2.23
2022-09-23T02:17:14.803Z,2.10
2022-09-23T02:20:30.617Z,1.73
2022-09-23T02:23:45.129Z,1.77
2022-09-23T02:26:59.696Z,2.33
2022-09-23T02:30:14.015Z,1.30
2022-09-23T02:33:32.777Z,1.60
2022-09-23T02:36:54.217Z,1.43
2022-09-23T02:40:16.964Z,1.50
2022-09-23T02:43:36.446Z,1.63
2022-09-23T02:46:45.917Z,1.83
2022-09-23T02:49:56.332Z,1.70
2022-09-23T02:53:07.447Z,1.30
2022-09-23T02:56:19.624Z,1.80
2022-09-23T02:59:28.229Z,2.50
2022-09-23T03:03:10.534Z,2.17
2022-09-23T03:06:31.520Z,2.30
2022-09-23T03:09:54.012Z,2.43
2022-09-23T03:13:17.027Z,1.70
2022-09-23T03:16:39.338Z,1.60
2022-09-23T03:19:56.307Z,1.43
2022-09-23T03:23:11.671Z,1.53
2022-09-23T03:26:28.415Z,1.50
2022-09-23T03:29:37.321Z,1.53
2022-09-23T03:32:47.814Z,1.80
2022-09-23T03:36:22.579Z,1.27
2022-09-23T03:39:41.190Z,1.53
2022-09-23T03:42:51.240Z,1.43
2022-09-23T03:46:01.509Z,1.67
2022-09-23T03:49:17.721Z,1.43
2022-09-23T03:52:27.451Z,1.27
2022-09-23T03:55:36.087Z,1.60
2022-09-23T03:58:46.457Z,1.57
2022-09-23T04:01:55.696Z,1.37
2022-09-23T04:05:04.041Z,1.40
2022-09-23T04:08:12.193Z,1.63
2022-09-23T04:11:20.295Z,13.83
2022-09-23T04:14:29.866Z,9.37
2022-09-23T04:17:37.962Z,3.43
2022-09-23T04:20:46.337Z,2.50
2022-09-23T04:23:54.416Z,2.10
2022-09-23T04:27:02.600Z,1.77
2022-09-23T04:30:14.114Z,1.40
2022-09-23T04:33:22.219Z,2.00
2022-09-23T04:36:30.419Z,2.00
2022-09-23T04:39:38.624Z,2.10
2022-09-23T04:42:46.816Z,1.43
2022-09-23T04:46:04.892Z,1.57
2022-09-23T04:49:12.991Z,1.70
2022-09-23T04:52:21.069Z,1.60
2022-09-23T04:55:29.320Z,1.60
2022-09-23T04:58:37.717Z,1.50
2022-09-23T05:01:47.256Z,1.50
2022-09-23T05:04:55.757Z,1.23
2022-09-23T05:08:03.905Z,1.50
2022-09-23T05:11:11.975Z,1.30
2022-09-23T05:14:20.334Z,1.70
2022-09-23T05:17:31.215Z,1.77
2022-09-23T05:20:39.396Z,2.20
2022-09-23T05:23:50.476Z,1.67
2022-09-23T05:26:58.578Z,3.40
2022-09-23T05:30:08.687Z,3.50
2022-09-23T05:33:18.118Z,2.87
2022-09-23T05:36:29.820Z,3.10
2022-09-23T05:39:40.197Z,2.87
2022-09-23T05:42:48.286Z,3.20
2022-09-23T05:46:07.805Z,2.23
2022-09-23T05:49:17.743Z,2.37
2022-09-23T05:52:25.972Z,2.33
2022-09-23T05:55:34.109Z,2.33
2022-09-23T05:58:42.328Z,2.00
2022-09-23T06:01:54.431Z,2.40
2022-09-23T06:05:06.818Z,1.93
2022-09-23T06:08:15.670Z,2.00
2022-09-23T06:11:24.022Z,2.20
2022-09-23T06:14:32.160Z,3.17
2022-09-23T06:17:40.231Z,2.33
2022-09-23T06:20:49.652Z,2.80
2022-09-23T06:24:00.222Z,2.87
2022-09-23T06:27:08.299Z,2.07
2022-09-23T06:30:17.065Z,2.57
2022-09-23T06:33:34.350Z,2.00
2022-09-23T06:36:46.817Z,1.53
2022-09-23T06:39:55.075Z,1.50
2022-09-23T06:43:03.424Z,1.93
2022-09-23T06:46:17.237Z,1.90
2022-09-23T06:49:25.437Z,1.83
2022-09-23T06:52:35.109Z,1.77
2022-09-23T06:55:44.154Z,1.30
2022-09-23T06:58:53.466Z,1.37
2022-09-23T07:02:01.772Z,1.17
2022-09-23T07:05:10.461Z,1.23
2022-09-23T07:08:19.915Z,1.13
2022-09-23T07:11:28.024Z,0.77
2022-09-23T07:14:36.161Z,0.90
2022-09-23T07:17:44.289Z,1.10
2022-09-23T07:20:52.711Z,0.90
2022-09-23T07:24:02.737Z,0.90
2022-09-23T07:27:10.971Z,1.00
2022-09-23T07:30:25.026Z,1.30
2022-09-23T07:33:34.533Z,1.20
2022-09-23T07:36:42.756Z,0.80
2022-09-23T07:39:52.314Z,0.90
2022-09-23T07:43:00.587Z,1.20
2022-09-23T07:46:14.217Z,1.20
2022-09-23T07:49:22.516Z,0.97
2022-09-23T07:52:31.061Z,1.00
2022-09-23T07:55:40.755Z,1.03
2022-09-23T07:59:00.135Z,1.10
2022-09-23T08:02:15.752Z,0.93
2022-09-23T08:05:24.057Z,0.80
2022-09-23T08:08:32.609Z,1.00
2022-09-23T08:11:42.921Z,0.80
2022-09-23T08:14:51.028Z,0.83
2022-09-23T08:18:01.226Z,1.00
2022-09-23T08:21:09.683Z,0.83
2022-09-23T08:24:21.234Z,0.90
2022-09-23T08:27:32.251Z,0.90
2022-09-23T08:30:40.730Z,0.90
2022-09-23T08:33:48.914Z,0.90
2022-09-23T08:36:57.935Z,0.90
2022-09-23T08:40:08.049Z,0.90
2022-09-23T08:43:27.360Z,0.70
2022-09-23T08:46:46.448Z,1.00
2022-09-23T08:50:05.348Z,0.90
2022-09-23T08:53:24.894Z,0.80
2022-09-23T08:56:35.389Z,0.60
2022-09-23T08:59:46.264Z,0.73
2022-09-23T09:02:57.081Z,0.90
2022-09-23T09:06:05.728Z,1.00
2022-09-23T09:09:25.035Z,0.80
2022-09-23T09:12:43.415Z,0.80
2022-09-23T09:16:15.352Z,0.80
2022-09-23T09:19:56.284Z,1.00
2022-09-23T09:23:21.810Z,0.87
2022-09-23T09:26:34.839Z,1.13
2022-09-23T09:29:50.002Z,1.20
2022-09-23T09:33:04.582Z,0.90
2022-09-23T09:36:24.716Z,0.90
2022-09-23T09:39:34.306Z,1.00
2022-09-23T09:42:47.967Z,1.10
2022-09-23T09:46:17.099Z,1.17
2022-09-23T09:49:40.510Z,0.87
2022-09-23T09:52:49.301Z,1.27
2022-09-23T09:56:05.335Z,1.10
2022-09-23T09:59:23.510Z,1.10
2022-09-23T10:02:36.858Z,1.30
2022-09-23T10:05:54.390Z,1.50
2022-09-23T10:09:19.202Z,1.43
2022-09-23T10:12:27.961Z,1.43
2022-09-23T10:15:45.712Z,1.00
2022-09-23T10:18:57.081Z,1.17
2022-09-23T10:22:26.265Z,1.30
2022-09-23T10:25:37.664Z,1.10
2022-09-23T10:28:52.305Z,1.13
2022-09-23T10:32:28.111Z,1.20
2022-09-23T10:35:36.502Z,1.20
2022-09-23T10:38:50.294Z,1.03
2022-09-23T10:42:27.739Z,1.10
2022-09-23T10:45:59.154Z,0.80
2022-09-23T10:49:59.344Z,1.07
2022-09-23T10:53:20.694Z,1.40
2022-09-23T10:56:40.725Z,0.87
2022-09-23T11:00:03.804Z,1.00
2022-09-23T11:04:26.871Z,1.00
2022-09-23T11:07:41.375Z,0.87
2022-09-23T11:11:11.603Z,0.90
2022-09-23T11:14:42.545Z,1.00
2022-09-23T11:18:29.167Z,0.90
2022-09-23T11:22:02.172Z,0.80
2022-09-23T11:25:30.289Z,0.80
2022-09-23T11:29:07.392Z,0.80
2022-09-23T11:32:48.713Z,0.80
2022-09-23T11:36:05.826Z,0.80
2022-09-23T11:39:21.830Z,0.80
2022-09-23T11:42:36.482Z,0.90
2022-09-23T11:45:58.581Z,0.90
2022-09-23T11:49:18.235Z,0.70
2022-09-23T11:52:35.961Z,1.00
2022-09-23T11:55:57.234Z,0.90
2022-09-23T11:59:35.302Z,0.90
2022-09-23T12:03:05.934Z,1.00
2022-09-23T12:06:23.099Z,1.00
2022-09-23T12:09:57.678Z,1.50
2022-09-23T12:13:18.006Z,1.67
2022-09-23T12:16:59.113Z,1.00
2022-09-23T12:20:43.233Z,1.43
2022-09-23T12:24:19.184Z,1.03
2022-09-23T12:27:41.916Z,1.57
2022-09-23T12:30:54.179Z,1.10
2022-09-23T12:34:20.827Z,1.60
2022-09-23T12:37:36.021Z,1.73
2022-09-23T12:40:45.595Z,1.50
2022-09-23T12:43:57.896Z,1.83
2022-09-23T12:47:38.946Z,1.73
2022-09-23T12:50:50.961Z,1.37
2022-09-23T12:54:24.831Z,1.50
2022-09-23T12:57:44.405Z,1.97
2022-09-23T13:01:09.141Z,1.70
2022-09-23T13:05:01.404Z,1.60
2022-09-23T13:08:16.208Z,1.73
2022-09-23T13:11:29.989Z,1.80
2022-09-23T13:14:45.469Z,1.70
2022-09-23T13:17:54.133Z,3.10
2022-09-23T13:21:08.446Z,1.60
2022-09-23T13:24:36.415Z,2.10
2022-09-23T13:27:50.950Z,1.30
2022-09-23T13:31:06.919Z,1.40
2022-09-23T13:34:21.885Z,1.37
2022-09-23T13:37:42.551Z,1.30
2022-09-23T13:40:51.535Z,1.50
2022-09-23T13:44:01.178Z,1.57
2022-09-23T13:47:16.698Z,1.60
2022-09-23T13:50:28.053Z,1.20
2022-09-23T13:53:39.820Z,1.63
2022-09-23T13:56:50.808Z,1.20
2022-09-23T14:00:03.582Z,1.40
2022-09-23T14:03:36.643Z,1.10
2022-09-23T14:06:46.848Z,1.70
2022-09-23T14:09:57.719Z,2.17
2022-09-23T14:13:06.239Z,1.20
2022-09-23T14:16:17.134Z,1.60
2022-09-23T14:19:27.901Z,1.53
2022-09-23T14:22:36.308Z,1.23
2022-09-23T14:25:46.542Z,1.07
2022-09-23T14:28:55.959Z,1.30
2022-09-23T14:32:13.137Z,1.20
2022-09-23T14:35:28.324Z,1.37
2022-09-23T14:38:51.402Z,1.33
2022-09-23T14:42:00.080Z,1.17
2022-09-23T14:45:16.297Z,1.20
2022-09-23T14:48:28.573Z,1.10
2022-09-23T14:51:49.009Z,1.10
2022-09-23T14:54:58.401Z,0.80
2022-09-23T14:58:17.945Z,0.90
2022-09-23T15:01:38.562Z,0.83
2022-09-23T15:04:47.245Z,1.20
2022-09-23T15:08:02.374Z,1.20
2022-09-23T15:11:10.879Z,1.20
2022-09-23T15:14:37.255Z,0.90
2022-09-23T15:17:48.240Z,1.00
2022-09-23T15:21:02.479Z,1.20
2022-09-23T15:24:42.261Z,0.73
2022-09-23T15:28:04.252Z,0.90
2022-09-23T15:31:13.257Z,0.73
2022-09-23T15:34:21.742Z,0.90
2022-09-23T15:37:35.507Z,0.97
2022-09-23T15:40:46.138Z,0.93
2022-09-23T15:43:56.631Z,0.80
2022-09-23T15:47:05.601Z,0.80
2022-09-23T15:50:14.690Z,1.03
2022-09-23T15:53:27.716Z,0.90
2022-09-23T15:56:38.054Z,1.07
2022-09-23T15:59:46.389Z,1.13
2022-09-23T16:02:55.244Z,0.90
2022-09-23T16:06:04.113Z,1.27
2022-09-23T16:09:13.764Z,1.20
2022-09-23T16:12:23.619Z,1.07
2022-09-23T16:15:33.652Z,1.03
2022-09-23T16:18:43.872Z,2.13
2022-09-23T16:21:52.412Z,1.40
2022-09-23T16:25:00.590Z,1.10
2022-09-23T16:28:12.056Z,1.30
2022-09-23T16:31:21.481Z,1.10
2022-09-23T16:34:29.943Z,1.00
2022-09-23T16:37:38.500Z,1.50
2022-09-23T16:40:47.464Z,1.37
2022-09-23T16:43:57.680Z,1.20
2022-09-23T16:47:06.016Z,1.30
2022-09-23T16:50:17.166Z,1.50
2022-09-23T16:53:26.401Z,2.40
2022-09-23T16:56:35.316Z,2.47
2022-09-23T17:00:02.648Z,2.70
2022-09-23T17:03:31.012Z,2.67
2022-09-23T17:06:44.749Z,2.40
2022-09-23T17:09:53.178Z,1.90
2022-09-23T17:13:01.649Z,2.30
2022-09-23T17:16:22.744Z,2.60
2022-09-23T17:19:30.992Z,2.00
2022-09-23T17:22:39.351Z,2.83
2022-09-23T17:25:49.439Z,2.60
2022-09-23T17:28:59.389Z,2.70
2022-09-23T17:32:09.487Z,3.80
2022-09-23T17:35:17.948Z,4.50
2022-09-23T17:38:29.459Z,8.50
2022-09-23T17:41:39.071Z,10.73
2022-09-23T17:44:48.246Z,11.20
2022-09-23T17:47:57.701Z,11.63
2022-09-23T17:51:11.521Z,20.23
2022-09-23T17:54:20.329Z,41.40
2022-09-23T17:57:28.739Z,4.50
2022-09-23T18:00:36.969Z,2.83
2022-09-23T18:03:47.470Z,2.60
2022-09-23T18:06:55.651Z,2.10
2022-09-23T18:10:04.376Z,2.00
2022-09-23T18:13:13.291Z,2.37
2022-09-23T18:16:26.343Z,2.00
2022-09-23T18:19:36.387Z,2.20
2022-09-23T18:22:44.986Z,3.07
2022-09-23T18:25:53.780Z,2.73
2022-09-23T18:29:03.520Z,3.17
2022-09-23T18:32:14.168Z,3.27
2022-09-23T18:35:24.264Z,9.37
2022-09-23T18:38:32.647Z,3.37
2022-09-23T18:41:41.096Z,4.80
2022-09-23T18:44:54.149Z,3.90
2022-09-23T18:48:20.182Z,4.23
2022-09-23T18:51:32.350Z,4.90
2022-09-23T18:54:40.412Z,4.50
2022-09-23T18:57:49.026Z,3.90
2022-09-23T19:00:57.410Z,4.03
2022-09-23T19:04:06.802Z,4.10
2022-09-23T19:07:17.027Z,4.00
2022-09-23T19:10:25.489Z,4.83
2022-09-23T19:13:35.859Z,4.07
2022-09-23T19:16:44.066Z,3.97
2022-09-23T19:19:52.438Z,4.73
2022-09-23T19:23:01.995Z,4.80
2022-09-23T19:26:13.358Z,3.63
2022-09-23T19:29:22.189Z,5.20
2022-09-23T19:32:33.351Z,4.50
2022-09-23T19:35:48.529Z,3.73
2022-09-23T19:39:04.340Z,3.40
2022-09-23T19:42:12.673Z,3.20
2022-09-23T19:45:21.228Z,2.30
2022-09-23T19:48:29.561Z,3.03
2022-09-23T19:51:37.885Z,2.67
2022-09-23T19:54:48.605Z,2.40
2022-09-23T19:57:56.751Z,2.90
2022-09-23T20:01:08.440Z,3.23
2022-09-23T20:04:16.905Z,3.30
2022-09-23T20:07:25.406Z,2.37
2022-09-23T20:10:35.345Z,2.80
2022-09-23T20:13:47.138Z,3.03
2022-09-23T20:16:56.595Z,3.20
2022-09-23T20:20:06.990Z,3.13
2022-09-23T20:23:15.156Z,3.20
2022-09-23T20:26:42.289Z,3.43
2022-09-23T20:29:51.138Z,3.50
2022-09-23T20:33:00.923Z,3.97
2022-09-23T20:36:09.660Z,3.60
2022-09-23T20:39:18.030Z,3.70
2022-09-23T20:42:28.425Z,4.27
2022-09-23T20:45:36.613Z,3.97
2022-09-23T20:48:47.457Z,3.93
2022-09-23T20:51:55.861Z,4.13
2022-09-23T20:55:04.389Z,3.73
2022-09-23T20:58:13.799Z,3.63
2022-09-23T21:01:23.185Z,3.70
2022-09-23T21:04:32.864Z,3.90
2022-09-23T21:07:41.190Z,3.47
2022-09-23T21:10:55.612Z,3.20
2022-09-23T21:14:05.553Z,3.30
2022-09-23T21:17:14.275Z,3.90
2022-09-23T21:20:22.477Z,3.13
2022-09-23T21:23:33.367Z,3.20
2022-09-23T21:26:41.554Z,3.23
2022-09-23T21:29:51.449Z,3.23
2022-09-23T21:33:01.824Z,3.23
2022-09-23T21:36:11.228Z,2.90
2022-09-23T21:39:19.756Z,3.30
2022-09-23T21:42:28.486Z,2.90
2022-09-23T21:45:38.666Z,2.90
2022-09-23T21:48:49.870Z,3.00
2022-09-23T21:52:00.931Z,2.80
2022-09-23T21:55:09.639Z,3.00
2022-09-23T21:58:17.803Z,3.10
2022-09-23T22:01:30.347Z,2.80
2022-09-23T22:04:38.589Z,2.67
2022-09-23T22:07:46.817Z,3.53
2022-09-23T22:10:56.066Z,2.63
2022-09-23T22:14:08.402Z,3.37
2022-09-23T22:17:19.178Z,2.80
2022-09-23T22:20:28.118Z,3.13
2022-09-23T22:23:36.495Z,2.83
2022-09-23T22:26:46.083Z,3.17
2022-09-23T22:30:11.674Z,2.70
2022-09-23T22:33:22.009Z,2.60
2022-09-23T22:36:30.347Z,2.67
2022-09-23T22:39:38.905Z,2.80
2022-09-23T22:42:48.469Z,3.17
2022-09-23T22:45:57.059Z,2.83
2022-09-23T22:49:07.427Z,3.20
2022-09-23T22:52:21.172Z,3.10
2022-09-23T22:55:31.106Z,3.00
2022-09-23T22:58:39.579Z,2.90
2022-09-23T23:01:48.307Z,2.87
2022-09-23T23:05:00.391Z,2.43
2022-09-23T23:08:08.537Z,2.87
2022-09-23T23:11:16.670Z,2.27
2022-09-23T23:14:28.203Z,2.80
2022-09-23T23:17:36.468Z,2.50
2022-09-23T23:20:46.111Z,2.77
2022-09-23T23:23:55.238Z,2.73
2022-09-23T23:27:03.371Z,2.87
2022-09-23T23:30:13.162Z,2.50
2022-09-23T23:33:21.420Z,2.73
2022-09-23T23:36:31.502Z,2.40
2022-09-23T23:39:39.671Z,2.40
2022-09-23T23:42:48.135Z,2.87
2022-09-23T23:45:56.335Z,2.50
2022-09-23T23:49:06.818Z,2.43
2022-09-23T23:52:16.252Z,2.60
2022-09-23T23:55:25.775Z,2.43
2022-09-23T23:58:34.656Z,2.47
